Time;durP1;ratioP1;P1;durP2;ratioP2;P2;SDS_P1;SDS_P2;PMS_P1;PMS_P2;Temp;Humidity;BMP_temperature;BMP_pressure;BME280_temperature;BME280_humidity;BME280_pressure;Samples;Min_cycle;Max_cycle;Signal;HPM_P1;HPM_P2
2022/06/11 00:00:54;;;;;;;4.90;3.70;;;;;;;;;;5188960;27;20659;-15
2022/06/11 00:03:22;;;;;;;6.60;3.58;;;;;;;;;;5195299;27;20221;-16
2022/06/11 00:05:49;;;;;;;4.40;3.83;;;;;;;;;;5195564;27;20229;-15
2022/06/11 00:08:17;;;;;;;5.40;3.88;;;;;;;;;;5195494;27;21113;-15
2022/06/11 00:10:44;;;;;;;6.40;4.20;;;;;;;;;;5195824;27;20225;-16
2022/06/11 00:13:12;;;;;;;5.90;4.13;;;;;;;;;;5195778;27;20805;-15
2022/06/11 00:15:40;;;;;;;5.50;4.30;;;;;;;;;;5190492;27;20722;-16
2022/06/11 00:18:08;;;;;;;10.00;5.30;;;;;;;;;;5175487;27;20233;-14
2022/06/11 00:20:35;;;;;;;7.13;4.07;;;;;;;;;;5195593;27;20236;-16
2022/06/11 00:23:03;;;;;;;6.53;3.85;;;;;;;;;;5195946;27;20316;-12
2022/06/11 00:25:32;;;;;;;7.45;3.92;;;;;;;;;;5195138;27;20229;-15
2022/06/11 00:28:00;;;;;;;5.85;3.95;;;;;;;;;;5195692;27;21054;-15
2022/06/11 00:30:27;;;;;;;7.00;4.53;;;;;;;;;;5191773;27;20676;-15
2022/06/11 00:32:56;;;;;;;7.15;5.00;;;;;;;;;;5195514;27;20229;-16
2022/06/11 00:35:23;;;;;;;9.43;4.88;;;;;;;;;;5195530;27;20233;-16
2022/06/11 00:37:51;;;;;;;8.45;5.57;;;;;;;;;;5195598;27;20229;-16
2022/06/11 00:40:18;;;;;;;6.65;5.38;;;;;;;;;;5184095;27;20226;-16
2022/06/11 00:42:46;;;;;;;6.53;5.22;;;;;;;;;;5193004;27;20255;-14
2022/06/11 00:45:16;;;;;;;6.63;5.25;;;;;;;;;;5194052;27;20237;-15
2022/06/11 00:47:44;;;;;;;9.43;5.30;;;;;;;;;;5192056;27;21094;-15
2022/06/11 00:50:17;;;;;;;12.32;5.95;;;;;;;;;;5186116;27;20232;-16
2022/06/11 00:52:44;;;;;;;8.38;5.45;;;;;;;;;;5187781;27;20574;-16
2022/06/11 00:55:12;;;;;;;9.63;5.07;;;;;;;;;;5174737;27;20238;-15
2022/06/11 00:57:40;;;;;;;8.63;5.15;;;;;;;;;;5174577;27;20237;-15
2022/06/11 01:00:08;;;;;;;9.70;4.93;;;;;;;;;;5180623;27;20229;-15
2022/06/11 01:02:37;;;;;;;8.23;4.82;;;;;;;;;;5187443;27;20225;-14
2022/06/11 01:05:05;;;;;;;9.20;4.65;;;;;;;;;;5194972;27;20312;-15
2022/06/11 01:07:47;;;;;;;9.25;4.75;;;;;;;;;;5194771;27;20264;-16
2022/06/11 01:10:19;;;;;;;6.82;4.28;;;;;;;;;;5195324;27;20236;-15
2022/06/11 01:12:50;;;;;;;5.80;4.28;;;;;;;;;;5181925;27;20225;-15
2022/06/11 01:15:18;;;;;;;10.05;4.43;;;;;;;;;;5191630;27;20233;-16
2022/06/11 01:17:49;;;;;;;7.72;4.20;;;;;;;;;;5174162;27;20860;-15
2022/06/11 01:20:22;;;;;;;7.95;4.40;;;;;;;;;;5188810;27;20264;-16
2022/06/11 01:23:09;;;;;;;9.30;3.63;;;;;;;;;;5188335;27;20236;-15
2022/06/11 01:25:37;;;;;;;7.63;4.10;;;;;;;;;;5186215;27;20257;-16
2022/06/11 01:28:18;;;;;;;6.47;3.63;;;;;;;;;;5186319;27;20233;-15
2022/06/11 01:30:47;;;;;;;8.55;3.53;;;;;;;;;;5189277;27;20231;-15
2022/06/11 01:33:15;;;;;;;4.93;3.25;;;;;;;;;;5195537;27;20574;-15
2022/06/11 01:35:47;;;;;;;4.55;3.45;;;;;;;;;;5193267;27;20237;-15
2022/06/11 01:38:19;;;;;;;6.05;3.03;;;;;;;;;;5193192;27;20583;-15
2022/06/11 01:40:47;;;;;;;5.80;3.22;;;;;;;;;;5197892;27;20261;-16
2022/06/11 01:43:19;;;;;;;4.35;3.20;;;;;;;;;;5194578;27;20229;-15
2022/06/11 01:45:48;;;;;;;6.53;3.60;;;;;;;;;;5191069;27;20242;-16
2022/06/11 01:48:17;;;;;;;5.00;3.30;;;;;;;;;;5194622;27;20236;-15
2022/06/11 01:50:46;;;;;;;6.95;3.13;;;;;;;;;;5194053;27;20256;-15
2022/06/11 01:53:37;;;;;;;7.10;3.22;;;;;;;;;;5193893;27;20217;-15
2022/06/11 01:56:10;;;;;;;6.45;3.35;;;;;;;;;;5191558;27;20234;-15
2022/06/11 01:58:41;;;;;;;6.68;3.20;;;;;;;;;;5183894;27;20984;-14
2022/06/11 02:01:12;;;;;;;4.70;3.25;;;;;;;;;;5187644;27;20221;-14
2022/06/11 02:03:41;;;;;;;5.30;3.40;;;;;;;;;;5194262;27;20324;-15
2022/06/11 02:06:18;;;;;;;5.45;3.58;;;;;;;;;;5196592;27;20934;-16
2022/06/11 02:08:49;;;;;;;5.38;3.05;;;;;;;;;;5198403;27;20233;-16
2022/06/11 02:11:19;;;;;;;5.85;3.35;;;;;;;;;;5197535;27;20228;-15
2022/06/11 02:13:49;;;;;;;4.28;2.92;;;;;;;;;;5197709;27;20221;-16
2022/06/11 02:16:19;;;;;;;6.82;3.47;;;;;;;;;;5182916;27;20689;-15
2022/06/11 02:18:47;;;;;;;5.65;3.10;;;;;;;;;;5197969;27;20226;-16
2022/06/11 02:21:16;;;;;;;4.07;3.00;;;;;;;;;;5203708;27;20683;-16
2022/06/11 02:23:44;;;;;;;3.47;2.83;;;;;;;;;;5211238;27;20239;-15
2022/06/11 02:26:12;;;;;;;4.97;3.15;;;;;;;;;;5219700;27;20228;-15
2022/06/11 02:28:41;;;;;;;3.65;2.97;;;;;;;;;;5204992;27;20227;-15
2022/06/11 02:31:09;;;;;;;6.63;3.15;;;;;;;;;;5201421;27;20225;-16
2022/06/11 02:33:37;;;;;;;5.70;3.17;;;;;;;;;;5206768;27;20257;-16
2022/06/11 02:36:06;;;;;;;5.95;3.72;;;;;;;;;;5206920;27;20232;-13
2022/06/11 02:38:33;;;;;;;5.47;3.30;;;;;;;;;;5199166;27;20252;-16
2022/06/11 02:41:01;;;;;;;3.28;2.90;;;;;;;;;;5210133;27;20273;-15
2022/06/11 02:43:29;;;;;;;7.90;3.63;;;;;;;;;;5195385;27;20723;-15
2022/06/11 02:45:56;;;;;;;5.57;3.50;;;;;;;;;;5192477;27;20234;-15
2022/06/11 02:48:24;;;;;;;7.40;3.60;;;;;;;;;;5198722;27;20221;-14
2022/06/11 02:50:53;;;;;;;5.50;3.10;;;;;;;;;;5217075;27;20315;-15
2022/06/11 02:53:20;;;;;;;6.47;3.47;;;;;;;;;;5202058;27;20654;-16
2022/06/11 02:55:47;;;;;;;4.60;3.60;;;;;;;;;;5211639;27;20235;-16
2022/06/11 02:58:15;;;;;;;6.15;3.20;;;;;;;;;;5196965;27;20236;-15
2022/06/11 03:00:44;;;;;;;7.18;3.38;;;;;;;;;;5195033;27;20226;-15
2022/06/11 03:03:11;;;;;;;6.25;3.13;;;;;;;;;;5206978;27;20233;-14
2022/06/11 03:05:40;;;;;;;8.07;3.90;;;;;;;;;;5197340;27;20233;-17
2022/06/11 03:08:09;;;;;;;5.20;3.47;;;;;;;;;;5209701;27;20224;-16
2022/06/11 03:10:36;;;;;;;4.85;3.53;;;;;;;;;;5203106;27;20276;-15
2022/06/11 03:13:04;;;;;;;3.70;3.33;;;;;;;;;;5218376;27;20221;-16
2022/06/11 03:15:32;;;;;;;5.10;3.17;;;;;;;;;;5213685;27;20221;-14
2022/06/11 03:17:59;;;;;;;4.57;3.40;;;;;;;;;;5189161;27;20226;-15
2022/06/11 03:20:27;;;;;;;6.00;3.50;;;;;;;;;;5209821;27;20232;-15
2022/06/11 03:22:55;;;;;;;5.18;3.17;;;;;;;;;;5209238;27;20334;-16
2022/06/11 03:25:23;;;;;;;4.60;2.92;;;;;;;;;;5197279;27;20225;-16
2022/06/11 03:27:51;;;;;;;5.90;3.17;;;;;;;;;;5210570;27;20671;-15
2022/06/11 03:30:18;;;;;;;4.47;3.67;;;;;;;;;;5206624;27;21012;-16
2022/06/11 03:32:46;;;;;;;5.05;2.83;;;;;;;;;;5196275;27;20276;-15
2022/06/11 03:35:13;;;;;;;8.00;3.10;;;;;;;;;;5209619;27;20225;-16
2022/06/11 03:37:40;;;;;;;3.75;2.92;;;;;;;;;;5203542;27;20221;-13
2022/06/11 03:40:08;;;;;;;4.05;2.60;;;;;;;;;;5196129;27;20326;-16
2022/06/11 03:42:37;;;;;;;5.65;3.40;;;;;;;;;;5213176;27;20228;-15
2022/06/11 03:45:05;;;;;;;3.78;2.55;;;;;;;;;;5217702;27;20225;-15
2022/06/11 03:47:33;;;;;;;4.30;2.67;;;;;;;;;;5205595;27;20236;-15
2022/06/11 03:50:01;;;;;;;6.20;2.72;;;;;;;;;;5217718;27;20703;-16
2022/06/11 03:52:29;;;;;;;4.75;2.50;;;;;;;;;;5209929;27;20973;-15
2022/06/11 03:54:56;;;;;;;3.80;2.70;;;;;;;;;;5217630;27;20224;-15
2022/06/11 03:57:23;;;;;;;2.60;2.40;;;;;;;;;;5218176;27;20343;-16
2022/06/11 03:59:52;;;;;;;4.00;2.50;;;;;;;;;;5217474;27;20228;-15
2022/06/11 04:02:19;;;;;;;3.50;2.42;;;;;;;;;;5188736;27;20240;-15
2022/06/11 04:04:47;;;;;;;6.05;2.75;;;;;;;;;;5213248;27;20325;-16
2022/06/11 04:07:14;;;;;;;4.82;2.80;;;;;;;;;;5193507;27;20677;-15
2022/06/11 04:09:43;;;;;;;5.70;2.50;;;;;;;;;;5174613;27;21071;-16
2022/06/11 04:12:15;;;;;;;3.85;2.70;;;;;;;;;;5181391;27;20997;-14
2022/06/11 04:14:43;;;;;;;6.75;3.20;;;;;;;;;;5168417;27;20229;-16
2022/06/11 04:17:13;;;;;;;3.40;3.10;;;;;;;;;;5166620;27;21041;-16
2022/06/11 04:19:42;;;;;;;4.80;3.22;;;;;;;;;;5182907;27;20229;-15
2022/06/11 04:22:09;;;;;;;4.78;3.50;;;;;;;;;;5189831;27;20230;-15
2022/06/11 04:24:36;;;;;;;4.40;3.30;;;;;;;;;;5174061;27;20245;-15
2022/06/11 04:27:04;;;;;;;5.38;3.80;;;;;;;;;;5173853;27;20716;-15
2022/06/11 04:29:32;;;;;;;3.90;3.17;;;;;;;;;;5184338;27;20225;-15
2022/06/11 04:32:00;;;;;;;8.10;4.00;;;;;;;;;;5166436;27;20223;-16
2022/06/11 04:34:29;;;;;;;6.28;3.80;;;;;;;;;;5192153;27;22588;-16
2022/06/11 04:36:57;;;;;;;5.63;3.67;;;;;;;;;;5177527;27;20234;-16
2022/06/11 04:39:25;;;;;;;5.82;3.88;;;;;;;;;;5174189;27;20691;-15
2022/06/11 04:41:52;;;;;;;6.95;3.55;;;;;;;;;;5174650;27;20222;-15
2022/06/11 04:44:19;;;;;;;5.43;3.35;;;;;;;;;;5189250;27;20225;-15
2022/06/11 04:46:47;;;;;;;6.13;3.60;;;;;;;;;;5173439;27;20230;-15
2022/06/11 04:49:14;;;;;;;4.50;3.20;;;;;;;;;;5189248;27;21056;-14
2022/06/11 04:51:43;;;;;;;5.72;3.45;;;;;;;;;;5195435;27;20247;-15
2022/06/11 04:54:11;;;;;;;5.00;3.33;;;;;;;;;;5195182;27;20225;-15
2022/06/11 04:56:38;;;;;;;4.63;3.45;;;;;;;;;;5189542;27;20700;-16
2022/06/11 04:59:06;;;;;;;6.80;3.30;;;;;;;;;;5186294;27;20225;-16
2022/06/11 05:01:38;;;;;;;4.28;3.80;;;;;;;;;;5166933;27;20324;-16
2022/06/11 05:04:05;;;;;;;6.43;3.42;;;;;;;;;;5185177;27;20228;-15
2022/06/11 05:06:35;;;;;;;7.22;3.35;;;;;;;;;;5185967;27;20715;-15
2022/06/11 05:09:04;;;;;;;6.13;3.20;;;;;;;;;;5195484;27;20233;-14
2022/06/11 05:11:31;;;;;;;6.13;3.28;;;;;;;;;;5212131;27;20783;-16
2022/06/11 05:13:58;;;;;;;5.00;2.88;;;;;;;;;;5191509;27;20252;-15
2022/06/11 05:16:26;;;;;;;7.75;3.03;;;;;;;;;;5176740;27;20273;-15
2022/06/11 05:18:53;;;;;;;9.43;3.17;;;;;;;;;;5184642;27;20255;-15
2022/06/11 05:21:21;;;;;;;10.20;2.85;;;;;;;;;;5174750;27;20226;-16
2022/06/11 05:23:48;;;;;;;9.45;2.70;;;;;;;;;;5192014;27;20730;-15
2022/06/11 05:26:18;;;;;;;6.28;2.60;;;;;;;;;;5194961;27;20233;-16
2022/06/11 05:28:45;;;;;;;6.30;2.40;;;;;;;;;;5187018;27;20267;-16
2022/06/11 05:31:13;;;;;;;8.52;3.58;;;;;;;;;;5182690;27;20649;-13
2022/06/11 05:33:40;;;;;;;8.40;2.80;;;;;;;;;;5186396;27;20957;-14
2022/06/11 05:36:08;;;;;;;8.52;2.92;;;;;;;;;;5192111;27;21083;-16
2022/06/11 05:38:35;;;;;;;10.48;2.97;;;;;;;;;;5192102;27;20225;-16
2022/06/11 05:41:02;;;;;;;9.70;2.55;;;;;;;;;;5190218;27;20221;-15
2022/06/11 05:43:31;;;;;;;14.55;3.03;;;;;;;;;;5195057;27;20225;-15
2022/06/11 05:46:01;;;;;;;9.43;2.85;;;;;;;;;;5185049;27;20707;-15
2022/06/11 05:48:29;;;;;;;8.73;2.40;;;;;;;;;;5193258;27;20245;-15
2022/06/11 05:50:56;;;;;;;6.00;2.55;;;;;;;;;;5194612;27;20227;-14
2022/06/11 05:53:24;;;;;;;10.48;2.45;;;;;;;;;;5190055;27;20222;-15
2022/06/11 05:55:51;;;;;;;10.85;3.20;;;;;;;;;;5193034;27;20225;-15
2022/06/11 05:58:20;;;;;;;8.27;2.63;;;;;;;;;;5194402;27;20232;-14
2022/06/11 06:00:49;;;;;;;8.88;2.70;;;;;;;;;;5191534;27;20226;-16
2022/06/11 06:03:16;;;;;;;14.43;3.25;;;;;;;;;;5197436;27;20229;-16
2022/06/11 06:05:44;;;;;;;12.30;2.63;;;;;;;;;;5197763;27;20225;-15
2022/06/11 06:08:11;;;;;;;11.68;3.15;;;;;;;;;;5198012;27;20230;-15
2022/06/11 06:10:38;;;;;;;11.15;2.97;;;;;;;;;;5198073;27;20229;-13
2022/06/11 06:13:45;;;;;;;9.88;2.95;;;;;;;;;;5197854;27;20229;-14
2022/06/11 06:15:56;;;;;;;10.25;2.38;;;;;;;;;;5196416;27;20297;-15
2022/06/11 06:18:23;;;;;;;8.88;2.83;;;;;;;;;;5197887;27;20229;-16
2022/06/11 06:20:51;;;;;;;11.52;2.92;;;;;;;;;;5188160;27;20222;-15
2022/06/11 06:23:18;;;;;;;9.70;2.78;;;;;;;;;;5193218;27;20260;-15
2022/06/11 06:25:46;;;;;;;13.75;3.28;;;;;;;;;;5189375;27;20225;-13
2022/06/11 06:28:13;;;;;;;10.10;3.05;;;;;;;;;;5197300;27;20232;-15
2022/06/11 06:30:41;;;;;;;16.67;3.17;;;;;;;;;;5189667;27;20974;-15
2022/06/11 06:33:09;;;;;;;15.88;2.75;;;;;;;;;;5197477;27;20218;-15
2022/06/11 06:35:37;;;;;;;14.48;3.58;;;;;;;;;;5196763;27;20272;-15
2022/06/11 06:38:06;;;;;;;11.60;3.63;;;;;;;;;;5196986;27;20233;-15
2022/06/11 06:40:33;;;;;;;12.85;3.58;;;;;;;;;;5196656;27;20973;-16
2022/06/11 06:43:04;;;;;;;12.35;2.60;;;;;;;;;;5196980;27;20309;-15
2022/06/11 06:45:32;;;;;;;13.10;3.08;;;;;;;;;;5195758;27;20806;-14
2022/06/11 06:48:01;;;;;;;14.07;3.28;;;;;;;;;;5195383;27;20236;-15
2022/06/11 06:50:30;;;;;;;13.98;3.20;;;;;;;;;;5196111;27;20264;-15
2022/06/11 06:52:57;;;;;;;13.30;3.10;;;;;;;;;;5197327;27;20233;-16
2022/06/11 06:55:24;;;;;;;11.75;3.08;;;;;;;;;;5196945;27;20273;-14
2022/06/11 06:57:52;;;;;;;14.18;4.05;;;;;;;;;;5193680;27;20225;-16
2022/06/11 07:00:19;;;;;;;11.52;3.20;;;;;;;;;;5191906;27;20222;-15
2022/06/11 07:02:47;;;;;;;11.98;3.30;;;;;;;;;;5194858;27;20237;-16
2022/06/11 07:05:14;;;;;;;12.88;2.95;;;;;;;;;;5196969;27;20772;-14
2022/06/11 07:07:43;;;;;;;14.88;2.90;;;;;;;;;;5195976;27;20332;-15
2022/06/11 07:10:11;;;;;;;14.60;3.40;;;;;;;;;;5196770;27;20268;-15
2022/06/11 07:12:39;;;;;;;13.82;2.88;;;;;;;;;;5204253;27;20612;-16
2022/06/11 07:15:07;;;;;;;15.00;4.05;;;;;;;;;;5196850;27;20688;-16
2022/06/11 07:17:35;;;;;;;13.85;3.17;;;;;;;;;;5190280;27;20228;-15
2022/06/11 07:20:04;;;;;;;12.07;3.03;;;;;;;;;;5195963;27;20222;-16
2022/06/11 07:22:32;;;;;;;12.90;3.40;;;;;;;;;;5196721;27;20229;-14
2022/06/11 07:25:01;;;;;;;14.82;3.55;;;;;;;;;;5196110;27;20248;-15
2022/06/11 07:27:28;;;;;;;10.20;2.83;;;;;;;;;;5196504;27;20867;-16
2022/06/11 07:29:57;;;;;;;17.08;3.83;;;;;;;;;;5196331;27;20233;-16
2022/06/11 07:32:25;;;;;;;12.00;3.28;;;;;;;;;;5194969;27;20233;-16
2022/06/11 07:34:53;;;;;;;12.15;3.25;;;;;;;;;;5183475;27;20222;-15
2022/06/11 07:37:20;;;;;;;12.18;3.25;;;;;;;;;;5189616;27;20221;-15
2022/06/11 07:39:48;;;;;;;13.77;3.20;;;;;;;;;;5188281;27;20233;-16
2022/06/11 07:42:16;;;;;;;10.48;3.08;;;;;;;;;;5201553;27;20734;-16
2022/06/11 07:44:44;;;;;;;12.20;3.58;;;;;;;;;;5196009;27;20228;-16
2022/06/11 07:47:11;;;;;;;15.73;3.25;;;;;;;;;;5195611;27;20229;-16
2022/06/11 07:49:38;;;;;;;15.23;4.30;;;;;;;;;;5196688;27;20248;-16
2022/06/11 07:52:06;;;;;;;16.92;3.15;;;;;;;;;;5196202;27;20229;-16
2022/06/11 07:54:34;;;;;;;15.27;3.65;;;;;;;;;;5196299;27;20222;-16
2022/06/11 07:57:01;;;;;;;14.55;3.58;;;;;;;;;;5196747;27;20229;-16
2022/06/11 07:59:36;;;;;;;11.35;3.58;;;;;;;;;;5187477;27;20222;-15
2022/06/11 08:02:04;;;;;;;13.45;3.10;;;;;;;;;;5191449;27;20244;-13
2022/06/11 08:04:31;;;;;;;10.40;3.08;;;;;;;;;;5194508;27;20221;-15
2022/06/11 08:06:59;;;;;;;12.20;3.25;;;;;;;;;;5192741;27;20250;-16
2022/06/11 08:09:26;;;;;;;16.60;3.72;;;;;;;;;;5193341;27;20237;-16
2022/06/11 08:11:54;;;;;;;7.47;2.72;;;;;;;;;;5195569;27;20225;-16
2022/06/11 08:14:22;;;;;;;13.95;3.85;;;;;;;;;;5194693;27;21338;-16
2022/06/11 08:16:50;;;;;;;15.35;4.00;;;;;;;;;;5194845;27;20236;-16
2022/06/11 08:19:18;;;;;;;15.18;3.88;;;;;;;;;;5196207;27;20229;-16
2022/06/11 08:21:45;;;;;;;16.25;3.53;;;;;;;;;;5195928;27;20272;-15
2022/06/11 08:24:12;;;;;;;9.48;2.92;;;;;;;;;;5196126;27;20225;-16
2022/06/11 08:26:40;;;;;;;9.70;3.38;;;;;;;;;;5182574;27;20264;-16
2022/06/11 08:29:07;;;;;;;14.65;4.35;;;;;;;;;;5195739;27;20621;-16
2022/06/11 08:31:35;;;;;;;9.88;2.85;;;;;;;;;;5196035;27;20232;-16
2022/06/11 08:34:04;;;;;;;13.02;3.00;;;;;;;;;;5195507;27;20316;-14
2022/06/11 08:36:32;;;;;;;12.52;3.00;;;;;;;;;;5195120;27;20699;-16
2022/06/11 08:38:59;;;;;;;14.52;3.70;;;;;;;;;;5181727;27;20726;-15
2022/06/11 08:41:29;;;;;;;12.20;2.80;;;;;;;;;;5195708;27;20226;-16
2022/06/11 08:43:58;;;;;;;12.80;3.78;;;;;;;;;;5195492;27;20851;-14
2022/06/11 08:46:26;;;;;;;15.93;4.07;;;;;;;;;;5183613;27;20313;-16
2022/06/11 08:48:57;;;;;;;15.00;3.58;;;;;;;;;;5200100;27;20319;-16
2022/06/11 08:51:25;;;;;;;11.23;3.70;;;;;;;;;;5183120;27;20225;-16
2022/06/11 08:53:53;;;;;;;12.40;3.35;;;;;;;;;;5180504;27;20222;-15
2022/06/11 08:56:21;;;;;;;13.77;3.97;;;;;;;;;;5187866;27;20324;-16
2022/06/11 08:58:56;;;;;;;15.68;3.90;;;;;;;;;;5179648;27;20734;-16
2022/06/11 09:01:25;;;;;;;16.25;3.70;;;;;;;;;;5181471;27;20224;-16
2022/06/11 09:03:56;;;;;;;11.38;3.50;;;;;;;;;;5195891;27;20229;-16
2022/06/11 09:06:31;;;;;;;12.70;3.60;;;;;;;;;;5183503;27;21162;-16
2022/06/11 09:09:02;;;;;;;11.80;3.60;;;;;;;;;;5181287;27;21089;-16
2022/06/11 09:11:33;;;;;;;11.13;3.40;;;;;;;;;;5194600;27;20238;-14
2022/06/11 09:14:04;;;;;;;11.50;3.03;;;;;;;;;;5194614;27;20224;-16
2022/06/11 09:16:35;;;;;;;12.63;3.63;;;;;;;;;;5187806;27;20237;-16
2022/06/11 09:19:06;;;;;;;12.88;3.63;;;;;;;;;;5194872;27;20228;-16
2022/06/11 09:21:42;;;;;;;11.65;2.90;;;;;;;;;;5190815;27;20221;-16
2022/06/11 09:24:19;;;;;;;13.93;3.30;;;;;;;;;;5195145;27;20236;-16
2022/06/11 09:26:47;;;;;;;12.43;3.10;;;;;;;;;;5195252;27;20235;-16
2022/06/11 09:29:16;;;;;;;12.68;3.10;;;;;;;;;;5194481;27;20237;-16
2022/06/11 09:31:45;;;;;;;9.50;2.78;;;;;;;;;;5185605;27;20240;-16
2022/06/11 09:34:14;;;;;;;15.32;3.38;;;;;;;;;;5194872;27;20228;-16
2022/06/11 09:36:45;;;;;;;11.75;3.78;;;;;;;;;;5194653;27;21047;-16
2022/06/11 09:39:16;;;;;;;11.43;3.05;;;;;;;;;;5180788;27;20225;-16
2022/06/11 09:41:46;;;;;;;11.07;3.10;;;;;;;;;;5194053;27;20233;-15
2022/06/11 09:44:26;;;;;;;11.40;3.40;;;;;;;;;;5194015;27;20233;-15
2022/06/11 09:46:54;;;;;;;10.70;3.33;;;;;;;;;;5193165;27;20220;-16
2022/06/11 09:49:24;;;;;;;13.70;3.47;;;;;;;;;;5173617;27;20233;-16
2022/06/11 09:51:55;;;;;;;13.88;3.58;;;;;;;;;;5187247;27;20236;-15
2022/06/11 09:54:27;;;;;;;10.32;3.13;;;;;;;;;;5194182;27;20947;-16
2022/06/11 09:56:59;;;;;;;10.50;2.70;;;;;;;;;;5194916;27;20963;-17
2022/06/11 09:59:33;;;;;;;8.85;2.70;;;;;;;;;;5194564;27;20764;-16
2022/06/11 10:02:01;;;;;;;11.27;3.13;;;;;;;;;;5190387;27;20222;-16
2022/06/11 10:04:29;;;;;;;11.25;3.33;;;;;;;;;;5179195;27;20245;-16
2022/06/11 10:06:58;;;;;;;11.13;3.33;;;;;;;;;;5182077;27;20236;-16
2022/06/11 10:09:26;;;;;;;12.80;3.47;;;;;;;;;;5191712;27;20229;-16
2022/06/11 10:11:54;;;;;;;10.68;3.10;;;;;;;;;;5194759;27;20221;-16
2022/06/11 10:14:31;;;;;;;12.32;3.15;;;;;;;;;;5194664;27;20221;-16
2022/06/11 10:17:03;;;;;;;13.93;3.72;;;;;;;;;;5194131;27;21057;-16
2022/06/11 10:19:33;;;;;;;11.30;2.53;;;;;;;;;;5191961;27;20726;-15
2022/06/11 10:22:03;;;;;;;12.07;3.17;;;;;;;;;;5187899;27;20226;-16
2022/06/11 10:24:31;;;;;;;10.40;3.42;;;;;;;;;;5184871;27;21243;-16
2022/06/11 10:26:59;;;;;;;12.15;3.15;;;;;;;;;;5180893;27;20229;-16
2022/06/11 10:29:28;;;;;;;8.52;2.67;;;;;;;;;;5186874;27;20224;-15
2022/06/11 10:31:56;;;;;;;13.48;3.03;;;;;;;;;;5183854;27;20226;-16
2022/06/11 10:34:23;;;;;;;10.88;3.22;;;;;;;;;;5197665;27;20221;-16
2022/06/11 10:36:52;;;;;;;10.15;3.30;;;;;;;;;;5194402;27;20240;-15
2022/06/11 10:39:22;;;;;;;11.13;2.47;;;;;;;;;;5189413;27;20237;-16
2022/06/11 10:41:51;;;;;;;9.77;2.70;;;;;;;;;;5191405;27;20222;-16
2022/06/11 10:44:21;;;;;;;11.73;3.25;;;;;;;;;;5191030;27;20229;-16
2022/06/11 10:46:48;;;;;;;15.88;3.10;;;;;;;;;;5184673;27;20226;-13
2022/06/11 10:49:16;;;;;;;12.20;3.00;;;;;;;;;;5187979;27;20235;-15
2022/06/11 10:51:45;;;;;;;8.93;2.63;;;;;;;;;;5187503;27;21038;-16
2022/06/11 10:54:13;;;;;;;6.63;2.15;;;;;;;;;;5185002;27;20263;-16
2022/06/11 10:56:44;;;;;;;11.13;2.80;;;;;;;;;;5191095;27;20235;-16
2022/06/11 10:59:14;;;;;;;11.32;2.75;;;;;;;;;;5187065;27;20225;-15
2022/06/11 11:01:43;;;;;;;12.02;2.67;;;;;;;;;;5188588;27;20226;-16
2022/06/11 11:04:19;;;;;;;15.88;3.15;;;;;;;;;;5187042;27;20793;-16
2022/06/11 11:06:46;;;;;;;10.25;2.83;;;;;;;;;;5186803;27;20231;-16
2022/06/11 11:09:14;;;;;;;8.75;2.30;;;;;;;;;;5190491;27;20229;-16
2022/06/11 11:11:45;;;;;;;10.95;2.83;;;;;;;;;;5182031;27;20238;-16
2022/06/11 11:14:15;;;;;;;11.95;3.10;;;;;;;;;;5188429;27;20225;-15
2022/06/11 11:16:47;;;;;;;11.63;3.15;;;;;;;;;;5192550;27;20240;-16
2022/06/11 11:19:15;;;;;;;14.90;3.30;;;;;;;;;;5176749;27;20226;-16
2022/06/11 11:21:48;;;;;;;15.75;3.63;;;;;;;;;;5193170;27;20320;-16
2022/06/11 11:24:17;;;;;;;9.18;3.17;;;;;;;;;;5189470;27;20285;-15
2022/06/11 11:26:50;;;;;;;13.93;3.05;;;;;;;;;;5193885;27;20308;-16
2022/06/11 11:29:18;;;;;;;9.52;2.55;;;;;;;;;;5192414;27;20348;-16
2022/06/11 11:31:46;;;;;;;9.50;3.60;;;;;;;;;;5190592;27;20245;-15
2022/06/11 11:34:15;;;;;;;10.43;2.85;;;;;;;;;;5187836;27;21374;-16
2022/06/11 11:36:42;;;;;;;9.38;3.05;;;;;;;;;;5183238;27;20238;-16
2022/06/11 11:39:18;;;;;;;10.55;2.90;;;;;;;;;;5184730;27;20347;-16
2022/06/11 11:41:51;;;;;;;13.23;3.22;;;;;;;;;;5187176;27;20240;-16
2022/06/11 11:44:19;;;;;;;11.45;2.80;;;;;;;;;;5186746;27;20298;-16
2022/06/11 11:46:48;;;;;;;10.02;3.00;;;;;;;;;;5191242;27;20272;-16
2022/06/11 11:49:16;;;;;;;10.50;3.10;;;;;;;;;;5189622;27;20226;-16
2022/06/11 11:51:43;;;;;;;13.95;3.30;;;;;;;;;;5191898;27;20412;-16
2022/06/11 11:54:14;;;;;;;13.07;3.10;;;;;;;;;;5190380;27;20334;-14
2022/06/11 11:56:41;;;;;;;10.90;2.78;;;;;;;;;;5187125;27;20237;-16
2022/06/11 11:59:13;;;;;;;13.90;3.45;;;;;;;;;;5191376;27;20235;-15
2022/06/11 12:01:41;;;;;;;13.38;3.38;;;;;;;;;;5180958;27;20234;-16
2022/06/11 12:04:08;;;;;;;11.38;3.70;;;;;;;;;;5191442;27;20407;-17
2022/06/11 12:06:36;;;;;;;10.15;3.00;;;;;;;;;;5186522;27;20349;-16
2022/06/11 12:09:06;;;;;;;15.80;3.67;;;;;;;;;;5185341;27;20316;-14
2022/06/11 12:11:34;;;;;;;15.60;3.42;;;;;;;;;;5191895;27;20248;-16
2022/06/11 12:14:02;;;;;;;12.80;3.53;;;;;;;;;;5184679;27;20844;-15
2022/06/11 12:16:32;;;;;;;16.10;3.85;;;;;;;;;;5188348;27;20708;-16
2022/06/11 12:19:01;;;;;;;12.55;2.95;;;;;;;;;;5192309;27;20546;-14
2022/06/11 12:21:30;;;;;;;18.27;3.08;;;;;;;;;;5188653;27;20261;-16
2022/06/11 12:23:58;;;;;;;14.55;3.17;;;;;;;;;;5186969;27;20901;-15
2022/06/11 12:26:27;;;;;;;11.73;3.33;;;;;;;;;;5192573;27;20229;-16
2022/06/11 12:28:57;;;;;;;8.80;2.70;;;;;;;;;;5189211;27;20229;-11
2022/06/11 12:31:24;;;;;;;14.07;2.95;;;;;;;;;;5185299;27;20952;-14
2022/06/11 12:33:53;;;;;;;8.63;2.38;;;;;;;;;;5186575;27;20248;-13
2022/06/11 12:36:25;;;;;;;12.85;3.22;;;;;;;;;;5190834;27;20237;-13
2022/06/11 12:38:53;;;;;;;9.93;2.90;;;;;;;;;;5190183;27;20232;-14
2022/06/11 12:41:22;;;;;;;12.35;3.33;;;;;;;;;;5187664;27;20230;-14
2022/06/11 12:43:50;;;;;;;13.40;2.97;;;;;;;;;;5187911;27;20277;-13
2022/06/11 12:46:20;;;;;;;9.18;3.03;;;;;;;;;;5183338;27;20229;-13
2022/06/11 12:48:51;;;;;;;14.57;2.95;;;;;;;;;;5179794;27;20715;-14
2022/06/11 12:51:23;;;;;;;12.52;2.65;;;;;;;;;;5185564;27;20233;-13
2022/06/11 12:53:55;;;;;;;10.45;2.60;;;;;;;;;;5187748;27;21551;-14
2022/06/11 12:56:28;;;;;;;8.57;2.45;;;;;;;;;;5186867;27;20228;-13
2022/06/11 12:59:00;;;;;;;11.70;3.15;;;;;;;;;;5183364;27;20441;-15
2022/06/11 13:01:27;;;;;;;12.02;2.92;;;;;;;;;;5183482;27;20229;-16
2022/06/11 13:04:08;;;;;;;13.63;2.70;;;;;;;;;;5187310;27;20236;-15
2022/06/11 13:06:45;;;;;;;7.57;2.35;;;;;;;;;;5183748;27;20233;-14
2022/06/11 13:09:18;;;;;;;11.88;2.65;;;;;;;;;;5189589;27;21002;-15
2022/06/11 13:11:49;;;;;;;12.07;3.13;;;;;;;;;;5187767;27;20245;-14
2022/06/11 13:14:21;;;;;;;10.57;2.78;;;;;;;;;;5178798;27;20233;-14
2022/06/11 13:16:50;;;;;;;12.73;2.47;;;;;;;;;;5191485;27;20233;-14
2022/06/11 13:19:21;;;;;;;8.55;2.60;;;;;;;;;;5186472;27;20265;-14
2022/06/11 13:21:51;;;;;;;6.93;2.30;;;;;;;;;;5178243;27;20236;-14
2022/06/11 13:24:21;;;;;;;10.95;2.63;;;;;;;;;;5181614;27;20223;-15
2022/06/11 13:26:52;;;;;;;11.25;2.65;;;;;;;;;;5184245;27;20233;-14
2022/06/11 13:29:29;;;;;;;9.45;2.55;;;;;;;;;;5180682;27;20232;-14
2022/06/11 13:31:58;;;;;;;12.68;2.80;;;;;;;;;;5177089;27;20241;-13
2022/06/11 13:34:33;;;;;;;8.77;2.50;;;;;;;;;;5184124;27;20286;-14
2022/06/11 13:37:14;;;;;;;11.73;3.10;;;;;;;;;;5188996;27;20239;-14
2022/06/11 13:39:45;;;;;;;10.95;2.58;;;;;;;;;;5182978;27;20233;-14
2022/06/11 13:42:14;;;;;;;11.70;2.47;;;;;;;;;;5183535;27;20229;-14
2022/06/11 13:44:52;;;;;;;8.70;2.60;;;;;;;;;;5179664;27;20241;-14
2022/06/11 13:47:25;;;;;;;8.95;2.78;;;;;;;;;;5181467;27;20249;-14
2022/06/11 13:49:53;;;;;;;8.02;2.33;;;;;;;;;;5183594;27;20225;-14
2022/06/11 13:55:10;;;;;;;12.15;3.17;;;;;;;;;;5185250;27;20272;-14
2022/06/11 13:55:11;;;;;;;9.82;2.72;;;;;;;;;;5180977;27;20420;-13
2022/06/11 13:57:43;;;;;;;11.93;2.75;;;;;;;;;;5188718;27;20316;-14
2022/06/11 14:00:14;;;;;;;14.70;3.00;;;;;;;;;;5186448;27;20943;-13
2022/06/11 14:02:54;;;;;;;9.90;2.45;;;;;;;;;;5183100;27;21006;-14
2022/06/11 14:05:22;;;;;;;9.93;2.42;;;;;;;;;;5186213;27;20229;-14
2022/06/11 14:07:50;;;;;;;8.00;2.75;;;;;;;;;;5176990;27;20427;-15
2022/06/11 14:10:36;;;;;;;7.07;2.65;;;;;;;;;;5173312;27;20704;-14
2022/06/11 14:13:03;;;;;;;10.73;2.90;;;;;;;;;;5168565;27;20892;-13
2022/06/11 14:15:32;;;;;;;9.07;2.80;;;;;;;;;;5169023;27;20317;-14
2022/06/11 14:18:01;;;;;;;7.55;2.95;;;;;;;;;;5165082;27;20222;-13
2022/06/11 14:20:29;;;;;;;10.98;2.25;;;;;;;;;;5172950;27;20256;-14
2022/06/11 14:22:58;;;;;;;6.78;1.73;;;;;;;;;;5170321;27;20562;-13
2022/06/11 14:25:34;;;;;;;5.93;2.00;;;;;;;;;;5165377;27;20234;-13
2022/06/11 14:28:22;;;;;;;4.97;1.80;;;;;;;;;;5160033;27;20261;-11
2022/06/11 14:31:04;;;;;;;5.40;1.60;;;;;;;;;;5168237;27;20237;-14
2022/06/11 14:33:32;;;;;;;8.18;2.40;;;;;;;;;;5167758;27;20244;-13
2022/06/11 14:36:00;;;;;;;6.60;1.85;;;;;;;;;;5159692;27;20226;-13
2022/06/11 14:38:39;;;;;;;7.05;2.50;;;;;;;;;;5175460;27;20578;-14
2022/06/11 14:41:19;;;;;;;6.82;2.08;;;;;;;;;;5169043;27;20240;-14
2022/06/11 14:44:05;;;;;;;7.47;2.30;;;;;;;;;;5172611;27;20252;-14
2022/06/11 14:46:45;;;;;;;5.63;2.00;;;;;;;;;;5168740;27;20229;-13
2022/06/11 14:49:13;;;;;;;6.88;1.90;;;;;;;;;;5169519;27;20237;-14